ASY101 OMDM-ESPA
Flight info
| Callsign | ASY101 |
|---|---|
| Flight time | N/A |
| Altitude | 38000 |
| Route | TUDIS N571 ALPOB L768 RABLA M556 OBROS L768 ULADA Q143 TAYMA N697 BPN H999 HIL N697 SOBAS/N0475F400 N697 RUKET L550 NOVPA N697 MENLI L677 GESON DCT MERPI A16 RASDA M855 KOMEZ DCT TOMBI UA16 EKSEN UL610 OSGED UL620 APSER UL610 YAA UG123 MAKOL T67 IVGOT DCT RIVOS DCT KENUX DCT BUKOV/K0867F400 P159 ROLKA/N0472F400 P159 GITOV DCT GARSO DCT OLANU/N0472F410 DCT KINTI/N0470F400 DCT ROGMI DCT ARTAB/N0477F410 DCT RIKPA DCT EDAXA DCT LENSO DCT UMSOM DCT LAPIX DCT SOPLI DCT GOSDI |
| Aircraft | A332/H-SADE1E2E3GHIJ3J5M1P2RWXY/LB2D1 |
Departure
| Time | 2026-05-07 17:45 |
|---|---|
| Airport | Al Minhad Air Base (OMDM) |
Arrival
| Time | N/A |
|---|---|
| Airport | Luleå Airport (ESPA) |
| Time | Latitude | Longitude | Altitude | Speed | Heading |
|---|---|---|---|---|---|
| 2026-05-07 17:30 | 25.02656 | 55.34727 | 143 ft | 0 kts | 89° |
| 2026-05-07 17:43 | 25.02656 | 55.34728 | 143 ft | 0 kts | 89° |
| 2026-05-07 17:44 | 25.02656 | 55.34734 | 143 ft | 0 kts | 89° |
| 2026-05-07 17:44 | 25.02657 | 55.34796 | 143 ft | 32 kts | 90° |
| 2026-05-07 17:44 | 25.02666 | 55.35281 | 142 ft | 92 kts | 89° |
| 2026-05-07 17:44 | 25.02682 | 55.36180 | 152 ft | 142 kts | 89° |
| 2026-05-07 17:45 | 25.02695 | 55.37431 | 201 ft | 178 kts | 87° |
| 2026-05-07 17:45 | 25.02707 | 55.38803 | 628 ft | 180 kts | 88° |
| 2026-05-07 17:45 | 25.02699 | 55.40169 | 1170 ft | 180 kts | 90° |
| 2026-05-07 17:45 | 25.02678 | 55.41519 | 1768 ft | 173 kts | 89° |
| 2026-05-07 17:46 | 25.02667 | 55.42835 | 2120 ft | 177 kts | 89° |
| 2026-05-07 17:46 | 25.02832 | 55.44206 | 2307 ft | 185 kts | 60° |
| 2026-05-07 17:46 | 25.03731 | 55.45216 | 2499 ft | 189 kts | 19° |
| 2026-05-07 17:46 | 25.05015 | 55.45369 | 2694 ft | 192 kts | 341° |
| 2026-05-07 17:47 | 25.06132 | 55.44572 | 2903 ft | 197 kts | 300° |
| 2026-05-07 17:47 | 25.06730 | 55.43182 | 3139 ft | 208 kts | 290° |
| 2026-05-07 17:47 | 25.07280 | 55.41643 | 3391 ft | 222 kts | 289° |
| 2026-05-07 17:47 | 25.07853 | 55.40009 | 3658 ft | 237 kts | 289° |
| 2026-05-07 17:48 | 25.08469 | 55.38244 | 3935 ft | 254 kts | 290° |
| 2026-05-07 17:48 | 25.09119 | 55.36385 | 4315 ft | 265 kts | 290° |
| 2026-05-07 17:48 | 25.09788 | 55.34476 | 4910 ft | 268 kts | 290° |
| 2026-05-07 17:48 | 25.10455 | 55.32570 | 5504 ft | 271 kts | 290° |
| 2026-05-07 17:49 | 25.11132 | 55.30635 | 6106 ft | 273 kts | 291° |
| 2026-05-07 17:49 | 25.11821 | 55.28669 | 6677 ft | 276 kts | 291° |
| 2026-05-07 17:49 | 25.12516 | 55.26685 | 7231 ft | 279 kts | 290° |
| 2026-05-07 17:49 | 25.13212 | 55.24697 | 7817 ft | 281 kts | 290° |
| 2026-05-07 17:50 | 25.13917 | 55.22680 | 8380 ft | 283 kts | 290° |
| 2026-05-07 17:50 | 25.14625 | 55.20653 | 8920 ft | 286 kts | 290° |
| 2026-05-07 17:50 | 25.15338 | 55.18608 | 9461 ft | 288 kts | 290° |
| 2026-05-07 17:50 | 25.16054 | 55.16552 | 9992 ft | 291 kts | 290° |
| 2026-05-07 17:51 | 25.16784 | 55.14437 | 10369 ft | 300 kts | 289° |
| 2026-05-07 17:51 | 25.17440 | 55.12195 | 10644 ft | 314 kts | 286° |
| 2026-05-07 17:51 | 25.18088 | 55.09832 | 10874 ft | 328 kts | 286° |
| 2026-05-07 17:51 | 25.18753 | 55.07383 | 11130 ft | 342 kts | 286° |
| 2026-05-07 17:52 | 25.19445 | 55.04837 | 11375 ft | 355 kts | 286° |
| 2026-05-07 17:52 | 25.20173 | 55.02160 | 11602 ft | 369 kts | 287° |
| 2026-05-07 17:52 | 25.20927 | 54.99389 | 11832 ft | 382 kts | 287° |
| 2026-05-07 17:52 | 25.21696 | 54.96572 | 12090 ft | 393 kts | 287° |
| 2026-05-07 17:53 | 25.22494 | 54.93642 | 12522 ft | 399 kts | 287° |
| 2026-05-07 17:53 | 25.23293 | 54.90701 | 13038 ft | 402 kts | 287° |
| 2026-05-07 17:53 | 25.24100 | 54.87733 | 13529 ft | 406 kts | 287° |
| 2026-05-07 17:53 | 25.24917 | 54.84736 | 14036 ft | 410 kts | 287° |
| 2026-05-07 17:54 | 25.25739 | 54.81716 | 14575 ft | 413 kts | 287° |
| 2026-05-07 17:54 | 25.26561 | 54.78686 | 15106 ft | 415 kts | 287° |
| 2026-05-07 17:54 | 25.27392 | 54.75622 | 15637 ft | 418 kts | 287° |
| 2026-05-07 17:54 | 25.28220 | 54.72566 | 16164 ft | 421 kts | 287° |
| 2026-05-07 17:55 | 25.29061 | 54.69459 | 16695 ft | 424 kts | 287° |
| 2026-05-07 17:55 | 25.29909 | 54.66321 | 17224 ft | 427 kts | 286° |
| 2026-05-07 17:55 | 25.30758 | 54.63174 | 17739 ft | 431 kts | 286° |
| 2026-05-07 17:55 | 25.31605 | 54.60035 | 18252 ft | 433 kts | 286° |
| 2026-05-07 17:56 | 25.32466 | 54.56836 | 18784 ft | 435 kts | 286° |
| 2026-05-07 17:56 | 25.33331 | 54.53619 | 19325 ft | 437 kts | 286° |
| 2026-05-07 17:56 | 25.34194 | 54.50431 | 19838 ft | 438 kts | 286° |
| 2026-05-07 17:56 | 25.35068 | 54.47201 | 20336 ft | 440 kts | 286° |
| 2026-05-07 17:57 | 25.35943 | 54.43966 | 20818 ft | 441 kts | 286° |
| 2026-05-07 17:57 | 25.36816 | 54.40730 | 21277 ft | 443 kts | 286° |
| 2026-05-07 17:57 | 25.37702 | 54.37448 | 21738 ft | 445 kts | 286° |
| 2026-05-07 17:57 | 25.38587 | 54.34163 | 22193 ft | 446 kts | 285° |
| 2026-05-07 17:58 | 25.39466 | 54.30893 | 22631 ft | 447 kts | 285° |
| 2026-05-07 17:58 | 25.40348 | 54.27609 | 23066 ft | 448 kts | 285° |
| 2026-05-07 17:58 | 25.41195 | 54.24284 | 23507 ft | 449 kts | 284° |
| 2026-05-07 17:58 | 25.42012 | 54.20978 | 23928 ft | 450 kts | 284° |
| 2026-05-07 17:59 | 25.42839 | 54.17615 | 24364 ft | 451 kts | 284° |
| 2026-05-07 17:59 | 25.43666 | 54.14263 | 24801 ft | 451 kts | 284° |
| 2026-05-07 17:59 | 25.44487 | 54.10947 | 25197 ft | 452 kts | 284° |
| 2026-05-07 17:59 | 25.45310 | 54.07585 | 25584 ft | 453 kts | 283° |
| 2026-05-07 18:00 | 25.46117 | 54.04242 | 25970 ft | 454 kts | 283° |
| 2026-05-07 18:00 | 25.46927 | 54.00874 | 26349 ft | 455 kts | 283° |
| 2026-05-07 18:00 | 25.47741 | 53.97481 | 26709 ft | 456 kts | 283° |
| 2026-05-07 18:00 | 25.48550 | 53.94108 | 27069 ft | 456 kts | 283° |
| 2026-05-07 18:01 | 25.49367 | 53.90698 | 27406 ft | 458 kts | 283° |
| 2026-05-07 18:01 | 25.50176 | 53.87324 | 27728 ft | 459 kts | 283° |
| 2026-05-07 18:01 | 25.50993 | 53.83909 | 28079 ft | 459 kts | 283° |
| 2026-05-07 18:01 | 25.51810 | 53.80497 | 28580 ft | 456 kts | 283° |
| 2026-05-07 18:02 | 25.53410 | 53.73808 | 29662 ft | 448 kts | 283° |
| 2026-05-07 18:02 | 25.54207 | 53.70483 | 30103 ft | 446 kts | 283° |
| 2026-05-07 18:02 | 25.54992 | 53.67201 | 30504 ft | 445 kts | 283° |
| 2026-05-07 18:03 | 25.55790 | 53.63864 | 30909 ft | 444 kts | 282° |
| 2026-05-07 18:03 | 25.56576 | 53.60576 | 31302 ft | 443 kts | 282° |
| 2026-05-07 18:03 | 25.57358 | 53.57296 | 31687 ft | 442 kts | 282° |
| 2026-05-07 18:03 | 25.58130 | 53.54051 | 32078 ft | 441 kts | 282° |
| 2026-05-07 18:04 | 25.58914 | 53.50756 | 32485 ft | 439 kts | 282° |
| 2026-05-07 18:04 | 25.59684 | 53.47513 | 32865 ft | 438 kts | 282° |
| 2026-05-07 18:04 | 25.60453 | 53.44271 | 33265 ft | 437 kts | 282° |
| 2026-05-07 18:04 | 25.61230 | 53.40997 | 33664 ft | 436 kts | 282° |
| 2026-05-07 18:05 | 25.61992 | 53.37784 | 34031 ft | 435 kts | 282° |
| 2026-05-07 18:05 | 25.62758 | 53.34547 | 34401 ft | 434 kts | 282° |
| 2026-05-07 18:05 | 25.63522 | 53.31306 | 34786 ft | 433 kts | 281° |
| 2026-05-07 18:05 | 25.64281 | 53.28090 | 35148 ft | 432 kts | 281° |
| 2026-05-07 18:06 | 25.65031 | 53.24903 | 35508 ft | 431 kts | 281° |
| 2026-05-07 18:06 | 25.65788 | 53.21682 | 35790 ft | 430 kts | 281° |
| 2026-05-07 18:06 | 25.66532 | 53.18510 | 35805 ft | 431 kts | 281° |
| 2026-05-07 18:07 | 25.68040 | 53.12064 | 35803 ft | 431 kts | 281° |
| 2026-05-07 18:07 | 25.69617 | 53.05711 | 35795 ft | 432 kts | 284° |
| 2026-05-07 18:08 | 25.71717 | 52.99455 | 35795 ft | 435 kts | 289° |
| 2026-05-07 18:08 | 25.74383 | 52.93353 | 35797 ft | 447 kts | 293° |
| 2026-05-07 18:09 | 25.77297 | 52.87173 | 35795 ft | 458 kts | 293° |
| 2026-05-07 18:09 | 25.80266 | 52.80888 | 35796 ft | 462 kts | 293° |
| 2026-05-07 18:10 | 25.83230 | 52.74607 | 35803 ft | 462 kts | 293° |
| 2026-05-07 18:10 | 25.86204 | 52.68287 | 35808 ft | 462 kts | 293° |
| 2026-05-07 18:11 | 25.89162 | 52.61988 | 35814 ft | 461 kts | 293° |
| 2026-05-07 18:11 | 25.92021 | 52.55686 | 35818 ft | 460 kts | 291° |
| 2026-05-07 18:12 | 25.94816 | 52.49297 | 35818 ft | 459 kts | 291° |
| 2026-05-07 18:12 | 25.97608 | 52.42934 | 35821 ft | 459 kts | 291° |
| 2026-05-07 18:13 | 26.00410 | 52.36604 | 35818 ft | 459 kts | 292° |
| 2026-05-07 18:13 | 26.03259 | 52.30244 | 35818 ft | 459 kts | 291° |
| 2026-05-07 18:14 | 26.06088 | 52.23908 | 35810 ft | 459 kts | 291° |
| 2026-05-07 18:14 | 26.08925 | 52.17536 | 35806 ft | 459 kts | 291° |
| 2026-05-07 18:15 | 26.11756 | 52.11165 | 35805 ft | 460 kts | 291° |
| 2026-05-07 18:15 | 26.14577 | 52.04805 | 35806 ft | 460 kts | 291° |
| 2026-05-07 18:16 | 26.17387 | 51.98466 | 35807 ft | 460 kts | 291° |
| 2026-05-07 18:16 | 26.20258 | 51.92102 | 35808 ft | 460 kts | 291° |
| 2026-05-07 18:17 | 26.23063 | 51.85740 | 35809 ft | 459 kts | 290° |
| 2026-05-07 18:17 | 26.25872 | 51.79359 | 35810 ft | 459 kts | 291° |
| 2026-05-07 18:18 | 26.28704 | 51.73011 | 35812 ft | 459 kts | 291° |
| 2026-05-07 18:18 | 26.31528 | 51.66678 | 35812 ft | 459 kts | 290° |
| 2026-05-07 18:19 | 26.34375 | 51.60288 | 35814 ft | 458 kts | 291° |
| 2026-05-07 18:19 | 26.37143 | 51.53952 | 35814 ft | 456 kts | 288° |
| 2026-05-07 18:20 | 26.39466 | 51.47403 | 35819 ft | 453 kts | 284° |
| 2026-05-07 18:20 | 26.41581 | 51.40783 | 35821 ft | 452 kts | 284° |
| 2026-05-07 18:21 | 26.43678 | 51.34205 | 35824 ft | 453 kts | 284° |
| 2026-05-07 18:21 | 26.45794 | 51.27587 | 35821 ft | 452 kts | 284° |
| 2026-05-07 18:22 | 26.47902 | 51.20991 | 35824 ft | 453 kts | 284° |
| 2026-05-07 18:22 | 26.50001 | 51.14406 | 35828 ft | 452 kts | 283° |
| 2026-05-07 18:23 | 26.52103 | 51.07798 | 35832 ft | 452 kts | 283° |
| 2026-05-07 18:23 | 26.54189 | 51.01218 | 35832 ft | 453 kts | 283° |
| 2026-05-07 18:24 | 26.56289 | 50.94590 | 35836 ft | 453 kts | 283° |
| 2026-05-07 18:24 | 26.58369 | 50.87971 | 35840 ft | 452 kts | 283° |
| 2026-05-07 18:25 | 26.60417 | 50.81357 | 35841 ft | 452 kts | 283° |
| 2026-05-07 18:25 | 26.62471 | 50.74716 | 35842 ft | 452 kts | 283° |
| 2026-05-07 18:26 | 26.64511 | 50.68098 | 35840 ft | 452 kts | 282° |
| 2026-05-07 18:26 | 26.66484 | 50.61465 | 35842 ft | 451 kts | 282° |
| 2026-05-07 18:27 | 26.68436 | 50.54847 | 35839 ft | 451 kts | 282° |
| 2026-05-07 18:27 | 26.70381 | 50.48180 | 35841 ft | 449 kts | 281° |
| 2026-05-07 18:28 | 26.72114 | 50.41508 | 35839 ft | 448 kts | 280° |
| 2026-05-07 18:28 | 26.73793 | 50.34840 | 35840 ft | 447 kts | 278° |
| 2026-05-07 18:29 | 26.75029 | 50.28085 | 35843 ft | 442 kts | 273° |
| 2026-05-07 18:29 | 26.75690 | 50.21276 | 35843 ft | 438 kts | 268° |
| 2026-05-07 18:30 | 26.75847 | 50.14519 | 35845 ft | 437 kts | 266° |
| 2026-05-07 18:30 | 26.75925 | 50.07742 | 35849 ft | 436 kts | 266° |
| 2026-05-07 18:31 | 26.75994 | 50.00960 | 35841 ft | 436 kts | 265° |
| 2026-05-07 18:31 | 26.76053 | 49.94236 | 35837 ft | 436 kts | 266° |
| 2026-05-07 18:32 | 26.76107 | 49.87443 | 35841 ft | 436 kts | 265° |
| 2026-05-07 18:32 | 26.76157 | 49.80707 | 35845 ft | 436 kts | 265° |
| 2026-05-07 18:33 | 26.76202 | 49.73958 | 35846 ft | 435 kts | 265° |
| 2026-05-07 18:33 | 26.76246 | 49.67206 | 35846 ft | 435 kts | 265° |
| 2026-05-07 18:34 | 26.76286 | 49.60426 | 35845 ft | 435 kts | 265° |
| 2026-05-07 18:34 | 26.76325 | 49.53712 | 35846 ft | 435 kts | 265° |
| 2026-05-07 18:35 | 26.76363 | 49.46935 | 35849 ft | 435 kts | 265° |
| 2026-05-07 18:35 | 26.76396 | 49.40220 | 35847 ft | 434 kts | 265° |
| 2026-05-07 18:36 | 26.76427 | 49.33466 | 35853 ft | 434 kts | 265° |
| 2026-05-07 18:36 | 26.76451 | 49.26736 | 35853 ft | 433 kts | 265° |
| 2026-05-07 18:37 | 26.76474 | 49.20060 | 35855 ft | 433 kts | 265° |
| 2026-05-07 18:37 | 26.76493 | 49.13344 | 35855 ft | 434 kts | 265° |
| 2026-05-07 18:38 | 26.76509 | 49.06591 | 35860 ft | 433 kts | 265° |
| 2026-05-07 18:38 | 26.76523 | 48.99870 | 35863 ft | 432 kts | 265° |
| 2026-05-07 18:39 | 26.76533 | 48.93208 | 35873 ft | 431 kts | 265° |
| 2026-05-07 18:39 | 26.76541 | 48.86488 | 35879 ft | 433 kts | 264° |
| 2026-05-07 18:40 | 26.76544 | 48.79779 | 35884 ft | 431 kts | 264° |
| 2026-05-07 18:40 | 26.76544 | 48.73113 | 35888 ft | 432 kts | 264° |
| 2026-05-07 18:41 | 26.76473 | 48.66385 | 35891 ft | 431 kts | 263° |
| 2026-05-07 18:41 | 26.76284 | 48.59739 | 35895 ft | 431 kts | 263° |
| 2026-05-07 18:42 | 26.76092 | 48.53023 | 35902 ft | 430 kts | 263° |
| 2026-05-07 18:42 | 26.75911 | 48.46402 | 35911 ft | 429 kts | 263° |
| 2026-05-07 18:43 | 26.75730 | 48.39716 | 35916 ft | 429 kts | 263° |
| 2026-05-07 18:43 | 26.75545 | 48.33064 | 35919 ft | 429 kts | 263° |
| 2026-05-07 18:44 | 26.75361 | 48.26431 | 35922 ft | 430 kts | 263° |
| 2026-05-07 18:44 | 26.75172 | 48.19780 | 35922 ft | 429 kts | 262° |
| 2026-05-07 18:45 | 26.74981 | 48.13124 | 35927 ft | 429 kts | 262° |
| 2026-05-07 18:45 | 26.74786 | 48.06466 | 35930 ft | 429 kts | 262° |
| 2026-05-07 18:46 | 26.74590 | 47.99844 | 35934 ft | 428 kts | 262° |
| 2026-05-07 18:46 | 26.74388 | 47.93191 | 35939 ft | 428 kts | 262° |
| 2026-05-07 18:47 | 26.74354 | 47.86572 | 35943 ft | 431 kts | 266° |
| 2026-05-07 18:47 | 26.74673 | 47.79868 | 35948 ft | 431 kts | 267° |
| 2026-05-07 18:48 | 26.75004 | 47.73208 | 35946 ft | 431 kts | 267° |
| 2026-05-07 18:48 | 26.75337 | 47.66537 | 35953 ft | 431 kts | 266° |
| 2026-05-07 18:49 | 26.75665 | 47.59853 | 35956 ft | 430 kts | 267° |
| 2026-05-07 18:49 | 26.75992 | 47.53211 | 35960 ft | 430 kts | 266° |
| 2026-05-07 18:50 | 26.76314 | 47.46542 | 35963 ft | 431 kts | 267° |
| 2026-05-07 18:50 | 26.76669 | 47.39846 | 35962 ft | 432 kts | 269° |
| 2026-05-07 18:51 | 26.77452 | 47.33167 | 35975 ft | 437 kts | 272° |
| 2026-05-07 18:51 | 26.78474 | 47.26482 | 35968 ft | 435 kts | 272° |
| 2026-05-07 18:52 | 26.79493 | 47.19850 | 35970 ft | 437 kts | 272° |
| 2026-05-07 18:52 | 26.80520 | 47.13150 | 35971 ft | 436 kts | 272° |
| 2026-05-07 18:53 | 26.81541 | 47.06480 | 35973 ft | 436 kts | 272° |
| 2026-05-07 18:53 | 26.82557 | 46.99812 | 35979 ft | 436 kts | 272° |
| 2026-05-07 18:54 | 26.83574 | 46.93126 | 35980 ft | 437 kts | 272° |
| 2026-05-07 18:54 | 26.84582 | 46.86479 | 35980 ft | 434 kts | 272° |
| 2026-05-07 18:55 | 26.85591 | 46.79814 | 35979 ft | 435 kts | 272° |
| 2026-05-07 18:55 | 26.86596 | 46.73127 | 35983 ft | 434 kts | 272° |
| 2026-05-07 18:56 | 26.87586 | 46.66519 | 35990 ft | 433 kts | 272° |
| 2026-05-07 18:56 | 26.88579 | 46.59893 | 35992 ft | 433 kts | 272° |
| 2026-05-07 18:57 | 26.89564 | 46.53260 | 35992 ft | 432 kts | 272° |
| 2026-05-07 18:57 | 26.90548 | 46.46641 | 35990 ft | 432 kts | 272° |
| 2026-05-07 18:58 | 26.91528 | 46.40020 | 35995 ft | 431 kts | 272° |
| 2026-05-07 18:58 | 26.92511 | 46.33385 | 36001 ft | 430 kts | 272° |
| 2026-05-07 18:59 | 26.93482 | 46.26825 | 35991 ft | 430 kts | 272° |
| 2026-05-07 18:59 | 26.94461 | 46.20196 | 36000 ft | 431 kts | 272° |
| 2026-05-07 19:00 | 26.95426 | 46.13634 | 36001 ft | 430 kts | 272° |
| 2026-05-07 19:00 | 26.96390 | 46.07038 | 35998 ft | 427 kts | 272° |
| 2026-05-07 19:01 | 26.97348 | 46.00493 | 35997 ft | 427 kts | 272° |
| 2026-05-07 19:01 | 26.98302 | 45.93945 | 36006 ft | 428 kts | 272° |
| 2026-05-07 19:02 | 26.99253 | 45.87381 | 36010 ft | 428 kts | 272° |
| 2026-05-07 19:02 | 27.00205 | 45.80802 | 36017 ft | 430 kts | 272° |
| 2026-05-07 19:03 | 27.01152 | 45.74192 | 36014 ft | 428 kts | 272° |
| 2026-05-07 19:03 | 27.02099 | 45.67622 | 36011 ft | 431 kts | 272° |
| 2026-05-07 19:04 | 27.03041 | 45.61012 | 36017 ft | 430 kts | 272° |
| 2026-05-07 19:04 | 27.03986 | 45.54397 | 36025 ft | 429 kts | 272° |
| 2026-05-07 19:05 | 27.04927 | 45.47773 | 36015 ft | 431 kts | 272° |
| 2026-05-07 19:05 | 27.05806 | 45.41161 | 36026 ft | 429 kts | 270° |
| 2026-05-07 19:06 | 27.06533 | 45.34543 | 36022 ft | 430 kts | 270° |
| 2026-05-07 19:06 | 27.07632 | 45.24554 | 36028 ft | 433 kts | 270° |
| 2026-05-07 19:07 | 27.08367 | 45.17909 | 36031 ft | 430 kts | 270° |
| 2026-05-07 19:07 | 27.09097 | 45.11266 | 36033 ft | 431 kts | 270° |
| 2026-05-07 19:08 | 27.09830 | 45.04609 | 36030 ft | 431 kts | 270° |
| 2026-05-07 19:08 | 27.10562 | 44.97933 | 36028 ft | 430 kts | 269° |
| 2026-05-07 19:09 | 27.11283 | 44.91286 | 36028 ft | 432 kts | 269° |
| 2026-05-07 19:09 | 27.12007 | 44.84611 | 36029 ft | 434 kts | 269° |
| 2026-05-07 19:10 | 27.12735 | 44.77876 | 36026 ft | 435 kts | 269° |
| 2026-05-07 19:10 | 27.13456 | 44.71173 | 36025 ft | 437 kts | 269° |
| 2026-05-07 19:11 | 27.14183 | 44.64399 | 36026 ft | 437 kts | 270° |
| 2026-05-07 19:11 | 27.14908 | 44.57655 | 36031 ft | 439 kts | 269° |
| 2026-05-07 19:12 | 27.15623 | 44.50886 | 36027 ft | 438 kts | 269° |
| 2026-05-07 19:12 | 27.16345 | 44.44097 | 36027 ft | 442 kts | 269° |
| 2026-05-07 19:13 | 27.17061 | 44.37285 | 36024 ft | 439 kts | 268° |
| 2026-05-07 19:13 | 27.17768 | 44.30487 | 36026 ft | 438 kts | 268° |
| 2026-05-07 19:14 | 27.18468 | 44.23712 | 36031 ft | 440 kts | 268° |
| 2026-05-07 19:14 | 27.19173 | 44.16867 | 36031 ft | 442 kts | 268° |
| 2026-05-07 19:15 | 27.19873 | 44.10048 | 36031 ft | 442 kts | 268° |
| 2026-05-07 19:15 | 27.20567 | 44.03206 | 36028 ft | 443 kts | 268° |
| 2026-05-07 19:16 | 27.21262 | 43.96346 | 36028 ft | 444 kts | 268° |
| 2026-05-07 19:16 | 27.21951 | 43.89531 | 36026 ft | 439 kts | 268° |
| 2026-05-07 19:17 | 27.22638 | 43.82682 | 36023 ft | 442 kts | 268° |
| 2026-05-07 19:17 | 27.23323 | 43.75851 | 36025 ft | 440 kts | 268° |
| 2026-05-07 19:18 | 27.23994 | 43.69053 | 36033 ft | 439 kts | 268° |
| 2026-05-07 19:18 | 27.24672 | 43.62242 | 36029 ft | 438 kts | 268° |
| 2026-05-07 19:19 | 27.25345 | 43.55455 | 36027 ft | 441 kts | 268° |
| 2026-05-07 19:19 | 27.26015 | 43.48642 | 36020 ft | 439 kts | 268° |
| 2026-05-07 19:20 | 27.26676 | 43.41865 | 36024 ft | 440 kts | 268° |
| 2026-05-07 19:20 | 27.27337 | 43.35082 | 36020 ft | 437 kts | 268° |
| 2026-05-07 19:21 | 27.27994 | 43.28278 | 36033 ft | 438 kts | 267° |
| 2026-05-07 19:21 | 27.28644 | 43.21540 | 36032 ft | 436 kts | 267° |
| 2026-05-07 19:22 | 27.29290 | 43.14800 | 36035 ft | 436 kts | 267° |
| 2026-05-07 19:22 | 27.29932 | 43.08026 | 36032 ft | 437 kts | 267° |
| 2026-05-07 19:23 | 27.30576 | 43.01263 | 36032 ft | 435 kts | 266° |
| 2026-05-07 19:23 | 27.31206 | 42.94557 | 36031 ft | 434 kts | 267° |
| 2026-05-07 19:24 | 27.31838 | 42.87806 | 36041 ft | 436 kts | 267° |
| 2026-05-07 19:24 | 27.32468 | 42.81068 | 36036 ft | 435 kts | 266° |
| 2026-05-07 19:25 | 27.33097 | 42.74290 | 36040 ft | 436 kts | 266° |
| 2026-05-07 19:25 | 27.33719 | 42.67540 | 36041 ft | 435 kts | 266° |
| 2026-05-07 19:26 | 27.34339 | 42.60794 | 36040 ft | 435 kts | 267° |
| 2026-05-07 19:26 | 27.34953 | 42.54079 | 36043 ft | 434 kts | 267° |
| 2026-05-07 19:27 | 27.35568 | 42.47329 | 36045 ft | 434 kts | 266° |
| 2026-05-07 19:27 | 27.36179 | 42.40566 | 36049 ft | 436 kts | 267° |
| 2026-05-07 19:28 | 27.36787 | 42.33804 | 36049 ft | 436 kts | 266° |
| 2026-05-07 19:28 | 27.37391 | 42.27039 | 36058 ft | 435 kts | 266° |
| 2026-05-07 19:29 | 27.37990 | 42.20293 | 36055 ft | 434 kts | 266° |
| 2026-05-07 19:29 | 27.38585 | 42.13571 | 36055 ft | 434 kts | 267° |
| 2026-05-07 19:30 | 27.39177 | 42.06825 | 36049 ft | 434 kts | 266° |
| 2026-05-07 19:30 | 27.39768 | 42.00055 | 36044 ft | 435 kts | 266° |
| 2026-05-07 19:31 | 27.40357 | 41.93308 | 36046 ft | 437 kts | 266° |
| 2026-05-07 19:31 | 27.40939 | 41.86533 | 36049 ft | 435 kts | 267° |
| 2026-05-07 19:32 | 27.41522 | 41.79776 | 36059 ft | 436 kts | 266° |
| 2026-05-07 19:32 | 27.42101 | 41.73001 | 36057 ft | 435 kts | 267° |
| 2026-05-07 19:33 | 27.42983 | 41.66235 | 36067 ft | 442 kts | 272° |
| 2026-05-07 19:33 | 27.44321 | 41.59457 | 36074 ft | 445 kts | 274° |
| 2026-05-07 19:34 | 27.45712 | 41.52675 | 36082 ft | 445 kts | 274° |
| 2026-05-07 19:34 | 27.47094 | 41.45916 | 36092 ft | 445 kts | 273° |
| 2026-05-07 19:35 | 27.48472 | 41.39153 | 36091 ft | 443 kts | 274° |
| 2026-05-07 19:35 | 27.49840 | 41.32434 | 36089 ft | 443 kts | 273° |
| 2026-05-07 19:36 | 27.51209 | 41.25685 | 36078 ft | 443 kts | 273° |
| 2026-05-07 19:36 | 27.52573 | 41.18941 | 36067 ft | 442 kts | 273° |
| 2026-05-07 19:37 | 27.53939 | 41.12177 | 36053 ft | 444 kts | 273° |
| 2026-05-07 19:37 | 27.55300 | 41.05414 | 36042 ft | 443 kts | 273° |
| 2026-05-07 19:38 | 27.56659 | 40.98647 | 36046 ft | 443 kts | 273° |
| 2026-05-07 19:38 | 27.57999 | 40.91935 | 36041 ft | 442 kts | 273° |
| 2026-05-07 19:39 | 27.59348 | 40.85175 | 36050 ft | 443 kts | 273° |
| 2026-05-07 19:39 | 27.60692 | 40.78414 | 36044 ft | 443 kts | 273° |
| 2026-05-07 19:40 | 27.62038 | 40.71621 | 36051 ft | 443 kts | 273° |
| 2026-05-07 19:40 | 27.63374 | 40.64860 | 36045 ft | 444 kts | 274° |
| 2026-05-07 19:41 | 27.64704 | 40.58107 | 36043 ft | 444 kts | 274° |
| 2026-05-07 19:41 | 27.66038 | 40.51323 | 36051 ft | 444 kts | 274° |
| 2026-05-07 19:42 | 27.67368 | 40.44539 | 36053 ft | 444 kts | 273° |
| 2026-05-07 19:42 | 27.68693 | 40.37767 | 36042 ft | 445 kts | 273° |
| 2026-05-07 19:43 | 27.70012 | 40.30994 | 36056 ft | 443 kts | 273° |
| 2026-05-07 19:43 | 27.71329 | 40.24221 | 36047 ft | 442 kts | 273° |
| 2026-05-07 19:44 | 27.72639 | 40.17464 | 36051 ft | 443 kts | 273° |
| 2026-05-07 19:44 | 27.73943 | 40.10712 | 36047 ft | 442 kts | 273° |
| 2026-05-07 19:45 | 27.75255 | 40.03912 | 36048 ft | 441 kts | 273° |
| 2026-05-07 19:45 | 27.76552 | 39.97165 | 36064 ft | 441 kts | 273° |
| 2026-05-07 19:46 | 27.77847 | 39.90409 | 36060 ft | 442 kts | 273° |
| 2026-05-07 19:46 | 27.79139 | 39.83644 | 36054 ft | 446 kts | 273° |
| 2026-05-07 19:47 | 27.80437 | 39.76839 | 36055 ft | 445 kts | 273° |
| 2026-05-07 19:47 | 27.81739 | 39.69990 | 36057 ft | 446 kts | 273° |
| 2026-05-07 19:48 | 27.83036 | 39.63142 | 36053 ft | 446 kts | 274° |
| 2026-05-07 19:48 | 27.84328 | 39.56310 | 36051 ft | 447 kts | 274° |
| 2026-05-07 19:49 | 27.85614 | 39.49484 | 36050 ft | 449 kts | 274° |
| 2026-05-07 19:49 | 27.86918 | 39.42548 | 36037 ft | 450 kts | 274° |
| 2026-05-07 19:50 | 27.88207 | 39.35672 | 36031 ft | 451 kts | 274° |
| 2026-05-07 19:50 | 27.89510 | 39.28713 | 36035 ft | 451 kts | 274° |
| 2026-05-07 19:51 | 27.90794 | 39.21807 | 36027 ft | 452 kts | 274° |
| 2026-05-07 19:51 | 27.92084 | 39.14874 | 36020 ft | 452 kts | 274° |
| 2026-05-07 19:52 | 27.93465 | 39.07931 | 36022 ft | 457 kts | 277° |
| 2026-05-07 19:52 | 27.95304 | 39.01022 | 36021 ft | 461 kts | 280° |
| 2026-05-07 19:53 | 27.97230 | 38.94094 | 36022 ft | 462 kts | 280° |
| 2026-05-07 19:53 | 27.99152 | 38.87166 | 36023 ft | 463 kts | 280° |
| 2026-05-07 19:54 | 28.01067 | 38.80241 | 36024 ft | 464 kts | 280° |
| 2026-05-07 19:54 | 28.02977 | 38.73316 | 36027 ft | 463 kts | 280° |
| 2026-05-07 19:55 | 28.04888 | 38.66370 | 36029 ft | 465 kts | 281° |
| 2026-05-07 19:55 | 28.06795 | 38.59423 | 36035 ft | 464 kts | 281° |
| 2026-05-07 19:56 | 28.08704 | 38.52438 | 36032 ft | 464 kts | 281° |
| 2026-05-07 19:56 | 28.10608 | 38.45493 | 36030 ft | 464 kts | 281° |
| 2026-05-07 19:57 | 28.12509 | 38.38506 | 36033 ft | 464 kts | 282° |
| 2026-05-07 19:57 | 28.14404 | 38.31541 | 36030 ft | 464 kts | 281° |
| 2026-05-07 19:58 | 28.16298 | 38.24567 | 36028 ft | 466 kts | 282° |
| 2026-05-07 19:58 | 28.18200 | 38.17556 | 36028 ft | 466 kts | 282° |
| 2026-05-07 19:59 | 28.20088 | 38.10556 | 36033 ft | 467 kts | 282° |
| 2026-05-07 19:59 | 28.21996 | 38.03489 | 36032 ft | 468 kts | 282° |
| 2026-05-07 20:00 | 28.23886 | 37.96463 | 36045 ft | 468 kts | 283° |
| 2026-05-07 20:00 | 28.25777 | 37.89414 | 36051 ft | 468 kts | 283° |
| 2026-05-07 20:01 | 28.27657 | 37.82405 | 36044 ft | 467 kts | 283° |
| 2026-05-07 20:01 | 28.29534 | 37.75381 | 36052 ft | 467 kts | 283° |
| 2026-05-07 20:02 | 28.30469 | 37.71867 | 35879 ft | 467 kts | 283° |
| 2026-05-07 20:02 | 28.31409 | 37.68344 | 35911 ft | 468 kts | 283° |
| 2026-05-07 20:02 | 28.33289 | 37.61283 | 36048 ft | 468 kts | 283° |
| 2026-05-07 20:03 | 28.35151 | 37.54261 | 36069 ft | 469 kts | 284° |
| 2026-05-07 20:03 | 28.37023 | 37.47193 | 36071 ft | 468 kts | 284° |
| 2026-05-07 20:04 | 28.38888 | 37.40135 | 36063 ft | 468 kts | 284° |
| 2026-05-07 20:04 | 28.40753 | 37.33067 | 36093 ft | 468 kts | 284° |
| 2026-05-07 20:05 | 28.42621 | 37.25958 | 36096 ft | 469 kts | 284° |
| 2026-05-07 20:05 | 28.44470 | 37.18911 | 36090 ft | 469 kts | 284° |
| 2026-05-07 20:06 | 28.46331 | 37.11798 | 36072 ft | 469 kts | 284° |
| 2026-05-07 20:06 | 28.48174 | 37.04738 | 36066 ft | 470 kts | 284° |
| 2026-05-07 20:07 | 28.50033 | 36.97608 | 36074 ft | 470 kts | 285° |
| 2026-05-07 20:07 | 28.51874 | 36.90524 | 36062 ft | 470 kts | 285° |
| 2026-05-07 20:08 | 28.53725 | 36.83371 | 36045 ft | 471 kts | 285° |
| 2026-05-07 20:08 | 28.55560 | 36.76292 | 36032 ft | 470 kts | 285° |
| 2026-05-07 20:09 | 28.57406 | 36.69164 | 36020 ft | 470 kts | 285° |
| 2026-05-07 20:10 | 28.60152 | 36.58505 | 36034 ft | 470 kts | 285° |
| 2026-05-07 20:10 | 28.61981 | 36.51391 | 36033 ft | 470 kts | 285° |
| 2026-05-07 20:11 | 28.63805 | 36.44258 | 36031 ft | 470 kts | 285° |
| 2026-05-07 20:11 | 28.65614 | 36.37172 | 36050 ft | 470 kts | 285° |
| 2026-05-07 20:12 | 28.67432 | 36.30029 | 36052 ft | 470 kts | 285° |
| 2026-05-07 20:12 | 28.69242 | 36.22898 | 36050 ft | 470 kts | 285° |
| 2026-05-07 20:13 | 28.71044 | 36.15789 | 36037 ft | 469 kts | 285° |
| 2026-05-07 20:13 | 28.72856 | 36.08624 | 36060 ft | 470 kts | 285° |
| 2026-05-07 20:14 | 28.74648 | 36.01519 | 36059 ft | 470 kts | 285° |
| 2026-05-07 20:14 | 28.76445 | 35.94374 | 36059 ft | 470 kts | 285° |
| 2026-05-07 20:15 | 28.78244 | 35.87202 | 36075 ft | 469 kts | 285° |
| 2026-05-07 20:15 | 28.80019 | 35.80111 | 36083 ft | 468 kts | 285° |
| 2026-05-07 20:16 | 28.81800 | 35.72975 | 36090 ft | 469 kts | 285° |
| 2026-05-07 20:16 | 28.83579 | 35.65833 | 36110 ft | 470 kts | 285° |
| 2026-05-07 20:17 | 28.85347 | 35.58715 | 36119 ft | 469 kts | 285° |
| 2026-05-07 20:17 | 28.87127 | 35.51535 | 36118 ft | 469 kts | 286° |
| 2026-05-07 20:18 | 28.88885 | 35.44424 | 36116 ft | 470 kts | 286° |
| 2026-05-07 20:18 | 28.90648 | 35.37273 | 36111 ft | 469 kts | 286° |
| 2026-05-07 20:19 | 28.92425 | 35.30051 | 36108 ft | 470 kts | 285° |
| 2026-05-07 20:19 | 28.94179 | 35.22905 | 36097 ft | 469 kts | 285° |
| 2026-05-07 20:20 | 28.95924 | 35.15771 | 36085 ft | 470 kts | 285° |
| 2026-05-07 20:20 | 28.97673 | 35.08610 | 36071 ft | 469 kts | 285° |
| 2026-05-07 20:21 | 28.99417 | 35.01445 | 36054 ft | 469 kts | 285° |
| 2026-05-07 20:21 | 29.01150 | 34.94291 | 36050 ft | 469 kts | 285° |
| 2026-05-07 20:22 | 29.02501 | 34.86998 | 36052 ft | 470 kts | 279° |
| 2026-05-07 20:22 | 29.03190 | 34.79604 | 36046 ft | 471 kts | 275° |
| 2026-05-07 20:23 | 29.03610 | 34.72196 | 36032 ft | 471 kts | 276° |
| 2026-05-07 20:23 | 29.04491 | 34.64819 | 36046 ft | 468 kts | 282° |
| 2026-05-07 20:24 | 29.06013 | 34.57616 | 36065 ft | 467 kts | 287° |
| 2026-05-07 20:24 | 29.08023 | 34.50590 | 36072 ft | 466 kts | 289° |
| 2026-05-07 20:25 | 29.10099 | 34.43542 | 36082 ft | 466 kts | 289° |
| 2026-05-07 20:25 | 29.12155 | 34.36543 | 36103 ft | 465 kts | 290° |
| 2026-05-07 20:26 | 29.14203 | 34.29549 | 36111 ft | 464 kts | 289° |
| 2026-05-07 20:26 | 29.16249 | 34.22543 | 36113 ft | 465 kts | 289° |
| 2026-05-07 20:27 | 29.18286 | 34.15541 | 36127 ft | 464 kts | 289° |
| 2026-05-07 20:27 | 29.20304 | 34.08596 | 36135 ft | 463 kts | 290° |
| 2026-05-07 20:28 | 29.22325 | 34.01618 | 36141 ft | 463 kts | 290° |
| 2026-05-07 20:28 | 29.24344 | 33.94639 | 36124 ft | 463 kts | 290° |
| 2026-05-07 20:29 | 29.26358 | 33.87659 | 36110 ft | 463 kts | 290° |
| 2026-05-07 20:29 | 29.28369 | 33.80666 | 36105 ft | 463 kts | 290° |
| 2026-05-07 20:30 | 29.30369 | 33.73687 | 36090 ft | 463 kts | 290° |
| 2026-05-07 20:30 | 29.32376 | 33.66672 | 36090 ft | 463 kts | 290° |
| 2026-05-07 20:31 | 29.34371 | 33.59684 | 36085 ft | 462 kts | 291° |
| 2026-05-07 20:31 | 29.36350 | 33.52741 | 36083 ft | 461 kts | 291° |
| 2026-05-07 20:32 | 29.38337 | 33.45748 | 36068 ft | 462 kts | 291° |
| 2026-05-07 20:32 | 29.40315 | 33.38777 | 36072 ft | 462 kts | 291° |
| 2026-05-07 20:33 | 29.42291 | 33.31795 | 36075 ft | 461 kts | 290° |
| 2026-05-07 20:33 | 29.44271 | 33.24786 | 36060 ft | 461 kts | 290° |
| 2026-05-07 20:34 | 29.46234 | 33.17808 | 36056 ft | 461 kts | 291° |
| 2026-05-07 20:34 | 29.48188 | 33.10861 | 36047 ft | 461 kts | 291° |
| 2026-05-07 20:35 | 29.50154 | 33.03859 | 36041 ft | 461 kts | 291° |
| 2026-05-07 20:35 | 29.52106 | 32.96880 | 36042 ft | 461 kts | 291° |
| 2026-05-07 20:36 | 29.54063 | 32.89865 | 36038 ft | 460 kts | 291° |
| 2026-05-07 20:36 | 29.56008 | 32.82885 | 36043 ft | 460 kts | 291° |
| 2026-05-07 20:37 | 29.57946 | 32.75911 | 36043 ft | 459 kts | 291° |
| 2026-05-07 20:37 | 29.59862 | 32.68944 | 36039 ft | 459 kts | 290° |
| 2026-05-07 20:38 | 29.61521 | 32.61857 | 36042 ft | 460 kts | 289° |
| 2026-05-07 20:38 | 29.63117 | 32.54797 | 36050 ft | 459 kts | 289° |
| 2026-05-07 20:39 | 29.64723 | 32.47699 | 36054 ft | 459 kts | 289° |
| 2026-05-07 20:39 | 29.66320 | 32.40633 | 36068 ft | 457 kts | 289° |
| 2026-05-07 20:40 | 29.67904 | 32.33599 | 36071 ft | 457 kts | 289° |
| 2026-05-07 20:40 | 29.69497 | 32.26505 | 36084 ft | 456 kts | 289° |
| 2026-05-07 20:41 | 29.71081 | 32.19441 | 36082 ft | 456 kts | 289° |
| 2026-05-07 20:41 | 29.72659 | 32.12387 | 36293 ft | 456 kts | 289° |
| 2026-05-07 20:41 | 29.73438 | 32.08894 | 36138 ft | 454 kts | 289° |
| 2026-05-07 20:42 | 29.74225 | 32.05358 | 36090 ft | 458 kts | 289° |
| 2026-05-07 20:42 | 29.75002 | 32.01869 | 36397 ft | 456 kts | 289° |
| 2026-05-07 20:42 | 29.75792 | 31.98355 | 36838 ft | 451 kts | 290° |
| 2026-05-07 20:42 | 29.76693 | 31.94920 | 37210 ft | 447 kts | 293° |
| 2026-05-07 20:43 | 29.77746 | 31.91565 | 37489 ft | 444 kts | 297° |
| 2026-05-07 20:43 | 29.78933 | 31.88337 | 37711 ft | 442 kts | 300° |
| 2026-05-07 20:43 | 29.80273 | 31.85195 | 37904 ft | 440 kts | 302° |
| 2026-05-07 20:43 | 29.81735 | 31.82107 | 38174 ft | 438 kts | 305° |
| 2026-05-07 20:44 | 29.83348 | 31.79136 | 38461 ft | 434 kts | 308° |
| 2026-05-07 20:44 | 29.85079 | 31.76344 | 38762 ft | 430 kts | 311° |
| 2026-05-07 20:44 | 29.86960 | 31.73651 | 39038 ft | 427 kts | 314° |
| 2026-05-07 20:44 | 29.88944 | 31.71129 | 39237 ft | 425 kts | 317° |
| 2026-05-07 20:45 | 29.91046 | 31.68760 | 39473 ft | 423 kts | 320° |
| 2026-05-07 20:45 | 29.93244 | 31.66545 | 39659 ft | 422 kts | 323° |
| 2026-05-07 20:45 | 29.95551 | 31.64486 | 39832 ft | 420 kts | 326° |
| 2026-05-07 20:45 | 29.97946 | 31.62589 | 40005 ft | 419 kts | 329° |
| 2026-05-07 20:46 | 30.00437 | 31.60856 | 40098 ft | 419 kts | 332° |
| 2026-05-07 20:46 | 30.05594 | 31.57597 | 40121 ft | 421 kts | 332° |
| 2026-05-07 20:47 | 30.10729 | 31.54394 | 40126 ft | 420 kts | 333° |
| 2026-05-07 20:47 | 30.15891 | 31.51180 | 40133 ft | 419 kts | 333° |
| 2026-05-07 20:48 | 30.21011 | 31.47989 | 40127 ft | 419 kts | 333° |
| 2026-05-07 20:48 | 30.26120 | 31.44805 | 40125 ft | 417 kts | 332° |
| 2026-05-07 20:49 | 30.31225 | 31.41613 | 40133 ft | 415 kts | 333° |
| 2026-05-07 20:49 | 30.36281 | 31.38445 | 40113 ft | 415 kts | 333° |
| 2026-05-07 20:50 | 30.41446 | 31.35483 | 40119 ft | 413 kts | 338° |
| 2026-05-07 20:50 | 30.46807 | 31.33073 | 40116 ft | 413 kts | 341° |
| 2026-05-07 20:51 | 30.52344 | 31.31210 | 40121 ft | 414 kts | 345° |
| 2026-05-07 20:51 | 30.58012 | 31.29922 | 40139 ft | 412 kts | 348° |
| 2026-05-07 20:52 | 30.63657 | 31.28860 | 40106 ft | 412 kts | 349° |
| 2026-05-07 20:52 | 30.69282 | 31.27821 | 40125 ft | 412 kts | 349° |
| 2026-05-07 20:53 | 30.74929 | 31.26772 | 40141 ft | 409 kts | 349° |
| 2026-05-07 20:53 | 30.80590 | 31.25725 | 40118 ft | 411 kts | 349° |
| 2026-05-07 20:54 | 30.86218 | 31.24689 | 40122 ft | 410 kts | 349° |
| 2026-05-07 20:54 | 30.91867 | 31.23647 | 40121 ft | 410 kts | 349° |
| 2026-05-07 20:55 | 30.97465 | 31.22609 | 40120 ft | 409 kts | 349° |
| 2026-05-07 20:55 | 31.03074 | 31.21567 | 40125 ft | 408 kts | 349° |
| 2026-05-07 20:56 | 31.08691 | 31.20524 | 40126 ft | 408 kts | 348° |
| 2026-05-07 20:56 | 31.14289 | 31.19486 | 40128 ft | 406 kts | 349° |
| 2026-05-07 20:57 | 31.19850 | 31.18448 | 40125 ft | 407 kts | 348° |
| 2026-05-07 20:57 | 31.25445 | 31.17405 | 40106 ft | 406 kts | 349° |
| 2026-05-07 20:58 | 31.31035 | 31.16361 | 40130 ft | 406 kts | 349° |
| 2026-05-07 20:58 | 31.36608 | 31.15317 | 40130 ft | 407 kts | 349° |
| 2026-05-07 20:59 | 31.42163 | 31.14274 | 40147 ft | 405 kts | 349° |
| 2026-05-07 20:59 | 31.47703 | 31.13236 | 40140 ft | 402 kts | 349° |
| 2026-05-07 21:00 | 31.53283 | 31.12255 | 40129 ft | 405 kts | 351° |
| 2026-05-07 21:00 | 31.58872 | 31.11616 | 40152 ft | 403 kts | 353° |
| 2026-05-07 21:01 | 31.64457 | 31.11021 | 40140 ft | 405 kts | 352° |
| 2026-05-07 21:01 | 31.70064 | 31.10418 | 40139 ft | 401 kts | 353° |
| 2026-05-07 21:02 | 31.75635 | 31.09818 | 40144 ft | 402 kts | 352° |
| 2026-05-07 21:02 | 31.81195 | 31.09221 | 40138 ft | 403 kts | 352° |
| 2026-05-07 21:03 | 31.86809 | 31.08625 | 40141 ft | 404 kts | 352° |
| 2026-05-07 21:03 | 31.92388 | 31.08020 | 40153 ft | 403 kts | 352° |
| 2026-05-07 21:04 | 31.97944 | 31.07422 | 40131 ft | 402 kts | 352° |
| 2026-05-07 21:04 | 32.03523 | 31.06825 | 40145 ft | 400 kts | 352° |
| 2026-05-07 21:05 | 32.09060 | 31.06218 | 40131 ft | 402 kts | 351° |
| 2026-05-07 21:05 | 32.14643 | 31.05596 | 40142 ft | 402 kts | 352° |
| 2026-05-07 21:06 | 32.20195 | 31.04988 | 40145 ft | 402 kts | 352° |
| 2026-05-07 21:06 | 32.25768 | 31.04371 | 40149 ft | 401 kts | 352° |
| 2026-05-07 21:07 | 32.31337 | 31.03758 | 40128 ft | 402 kts | 351° |
| 2026-05-07 21:07 | 32.36898 | 31.03136 | 40131 ft | 401 kts | 352° |
| 2026-05-07 21:08 | 32.42444 | 31.02526 | 40120 ft | 400 kts | 352° |
| 2026-05-07 21:08 | 32.47996 | 31.01914 | 40110 ft | 398 kts | 352° |
| 2026-05-07 21:09 | 32.53482 | 31.01304 | 40121 ft | 398 kts | 352° |
| 2026-05-07 21:09 | 32.59053 | 31.00691 | 40110 ft | 402 kts | 351° |
| 2026-05-07 21:10 | 32.64580 | 31.00076 | 40125 ft | 401 kts | 352° |
| 2026-05-07 21:10 | 32.70143 | 30.99457 | 40123 ft | 398 kts | 352° |